aviador You're here:

ZBTJ Decoded Metar

TIANJIN in CHINA
Report Time2018-01-16 21:00:00
UTC Time2018-01-16 21:22:39
Flight Rules ifr IFR
WindVRB at 2 kt
Visibility3500 m
Phenomena:Mist
Clouds:N/A
Expected CloudBase > 800 ft AGL from Temp-Dew spread
CeilingNone
Temp-6°C (ISA -21)
Dew Point-8°C (86% RH)
AAT-9.6°C
QNH1016 hPa
Density Alt-2,648 ft
Elevation10 ft
Report Wrong Elevation
Raw Report
ZBTJ 162100Z VRB01MPS 3500 BR NSC M06/M08 Q1016 BECMG TL2230 2500
BR=

Extra information for ZBTJ:More info

Metar Taf Metar & Taf Last 4 Metars F.Rules Stats Wind Profile Meteogram Temp Stats Airport Information Weather charts Add Link Nearby VenuesMetar ALERT Operation Metar Decoded Social comments